Time;durP1;ratioP1;P1;durP2;ratioP2;P2;SDS_P1;SDS_P2;PMS_P1;PMS_P2;Temp;Humidity;BMP_temperature;BMP_pressure;BME280_temperature;BME280_humidity;BME280_pressure;Samples;Min_cycle;Max_cycle;Signal;HPM_P1;HPM_P2
2022/06/20 00:00:43;;;;;;;;;;;23.40;99.90;;;;;;5060313;28;20232;-67
2022/06/20 00:03:14;;;;;;;;;;;23.40;99.90;;;;;;5041981;28;19955;-69
2022/06/20 00:05:41;;;;;;;;;;;23.40;99.90;;;;;;5053772;28;20161;-68
2022/06/20 00:08:10;;;;;;;;;;;23.40;99.90;;;;;;5065575;28;20236;-69
2022/06/20 00:10:36;;;;;;;;;;;23.30;99.90;;;;;;5065659;28;19921;-68
2022/06/20 00:13:04;;;;;;;;;;;23.30;99.90;;;;;;5065608;28;19993;-68
2022/06/20 00:15:32;;;;;;;;;;;23.10;99.90;;;;;;5059073;28;19996;-69
2022/06/20 00:18:00;;;;;;;;;;;23.00;99.90;;;;;;5044322;28;19921;-68
2022/06/20 00:20:27;;;;;;;;;;;23.00;99.90;;;;;;5045360;28;19921;-68
2022/06/20 00:22:54;;;;;;;;;;;22.80;99.90;;;;;;5045168;28;19952;-68
2022/06/20 00:25:21;;;;;;;;;;;22.70;99.90;;;;;;5044331;28;20201;-69
2022/06/20 00:27:49;;;;;;;;;;;22.70;99.90;;;;;;5042731;28;19948;-69
2022/06/20 00:30:17;;;;;;;;;;;22.70;99.90;;;;;;5044944;28;19988;-68
2022/06/20 00:32:44;;;;;;;;;;;22.70;99.90;;;;;;5044879;28;19921;-69
2022/06/20 00:35:11;;;;;;;;;;;22.80;99.90;;;;;;5044362;28;19960;-69
2022/06/20 00:37:38;;;;;;;;;;;22.80;99.90;;;;;;5045011;28;19949;-69
2022/06/20 00:40:06;;;;;;;;;;;22.80;99.90;;;;;;5044464;28;19945;-69
2022/06/20 00:42:32;;;;;;;;;;;22.80;99.90;;;;;;5044725;28;19980;-69
2022/06/20 00:45:01;;;;;;;;;;;22.90;99.90;;;;;;5044297;28;19959;-69
2022/06/20 00:47:31;;;;;;;;;;;22.90;99.90;;;;;;5043431;28;19936;-68
2022/06/20 00:50:00;;;;;;;;;;;22.90;99.90;;;;;;5044540;28;20240;-67
2022/06/20 00:52:29;;;;;;;;;;;22.80;99.90;;;;;;5044881;28;19921;-68
2022/06/20 00:54:58;;;;;;;;;;;22.80;99.90;;;;;;5043454;28;19952;-69
2022/06/20 00:57:31;;;;;;;;;;;22.70;99.90;;;;;;5048033;28;19921;-69
2022/06/20 01:00:01;;;;;;;;;;;22.50;99.90;;;;;;5055998;28;19921;-69
2022/06/20 01:02:32;;;;;;;;;;;22.30;99.90;;;;;;5048638;28;19968;-69
2022/06/20 01:05:00;;;;;;;;;;;22.20;99.90;;;;;;5049351;28;19953;-68
2022/06/20 01:07:30;;;;;;;;;;;22.10;99.90;;;;;;5043353;28;19957;-69
2022/06/20 01:09:58;;;;;;;;;;;22.00;99.90;;;;;;5044676;28;19963;-68
2022/06/20 01:12:26;;;;;;;;;;;22.00;99.90;;;;;;5043805;28;20251;-68
2022/06/20 01:14:53;;;;;;;;;;;22.00;99.90;;;;;;5044140;28;19964;-68
2022/06/20 01:17:22;;;;;;;;;;;22.00;99.90;;;;;;5043427;28;19963;-68
2022/06/20 01:19:55;;;;;;;;;;;22.00;99.90;;;;;;5043760;28;20109;-68
2022/06/20 01:22:27;;;;;;;;;;;22.00;99.90;;;;;;5044643;28;19921;-69
2022/06/20 01:25:00;;;;;;;;;;;22.00;99.90;;;;;;5044164;28;19936;-69
2022/06/20 01:27:33;;;;;;;;;;;22.00;99.90;;;;;;5041501;28;19963;-68
2022/06/20 01:29:59;;;;;;;;;;;22.00;99.90;;;;;;5044270;28;19956;-68
2022/06/20 01:32:26;;;;;;;;;;;22.00;99.90;;;;;;5053609;28;19963;-69
2022/06/20 01:34:53;;;;;;;;;;;22.10;99.90;;;;;;5055033;28;19920;-68
2022/06/20 01:37:26;;;;;;;;;;;22.10;99.90;;;;;;5063054;28;19964;-68
2022/06/20 01:39:54;;;;;;;;;;;22.10;99.90;;;;;;5063737;28;19924;-69
2022/06/20 01:42:20;;;;;;;;;;;22.20;99.90;;;;;;5063659;28;20101;-69
2022/06/20 01:44:49;;;;;;;;;;;22.20;99.90;;;;;;5044334;28;19917;-68
2022/06/20 01:47:16;;;;;;;;;;;22.10;99.90;;;;;;5042028;28;19956;-68
2022/06/20 01:49:43;;;;;;;;;;;22.00;99.90;;;;;;5042526;28;20227;-68
2022/06/20 01:52:15;;;;;;;;;;;22.00;99.90;;;;;;5043496;28;20231;-68
2022/06/20 01:54:43;;;;;;;;;;;21.90;99.90;;;;;;5042201;28;19987;-68
2022/06/20 01:57:11;;;;;;;;;;;21.90;99.90;;;;;;5042517;28;19929;-68
2022/06/20 01:59:40;;;;;;;;;;;21.90;99.90;;;;;;5090318;22;19947;-88
2022/06/20 02:02:09;;;;;;;;;;;22.00;99.90;;;;;;5101667;28;19922;-89
2022/06/20 02:04:36;;;;;;;;;;;22.00;99.90;;;;;;5096402;28;19948;-89
2022/06/20 02:07:04;;;;;;;;;;;22.00;99.90;;;;;;5104581;28;19927;-89
2022/06/20 02:09:31;;;;;;;;;;;22.00;99.90;;;;;;5106967;28;19927;-88
2022/06/20 02:12:00;;;;;;;;;;;22.00;99.90;;;;;;5106697;28;19928;-89
2022/06/20 02:14:32;;;;;;;;;;;22.00;99.90;;;;;;5094867;28;19921;-89
2022/06/20 02:17:00;;;;;;;;;;;22.00;99.90;;;;;;5085493;28;19987;-87
2022/06/20 02:19:31;;;;;;;;;;;21.90;99.90;;;;;;5086376;28;20188;-89
2022/06/20 02:22:00;;;;;;;;;;;21.90;99.90;;;;;;5086709;28;19920;-89
2022/06/20 02:24:29;;;;;;;;;;;22.00;99.90;;;;;;5085996;28;19983;-89
2022/06/20 02:27:01;;;;;;;;;;;22.00;99.90;;;;;;5084051;28;19921;-88
2022/06/20 02:29:28;;;;;;;;;;;22.00;99.90;;;;;;5084268;28;19927;-88
2022/06/20 02:31:57;;;;;;;;;;;22.00;99.90;;;;;;5085228;28;19927;-87
2022/06/20 02:34:25;;;;;;;;;;;22.00;99.90;;;;;;5085700;28;19928;-88
2022/06/20 02:36:54;;;;;;;;;;;22.00;99.90;;;;;;5085129;28;19920;-88
2022/06/20 02:39:21;;;;;;;;;;;22.00;99.90;;;;;;5085203;28;19962;-88
2022/06/20 02:41:51;;;;;;;;;;;21.90;99.90;;;;;;5085149;28;19958;-89
2022/06/20 02:44:18;;;;;;;;;;;21.90;99.90;;;;;;5085441;28;20233;-88
2022/06/20 02:46:46;;;;;;;;;;;21.80;99.90;;;;;;5084453;28;19928;-87
2022/06/20 02:49:14;;;;;;;;;;;21.70;99.90;;;;;;5084977;28;19926;-87
2022/06/20 02:51:42;;;;;;;;;;;21.70;99.90;;;;;;5085596;28;19948;-89
2022/06/20 02:54:12;;;;;;;;;;;21.60;99.90;;;;;;5085056;28;20135;-89
2022/06/20 02:56:41;;;;;;;;;;;21.60;99.90;;;;;;5085124;28;20096;-88
2022/06/20 02:59:14;;;;;;;;;;;21.50;99.90;;;;;;5093715;28;19943;-87
2022/06/20 03:01:43;;;;;;;;;;;21.50;99.90;;;;;;5085109;28;20031;-88
2022/06/20 03:04:10;;;;;;;;;;;21.50;99.90;;;;;;5092835;28;19921;-88
2022/06/20 03:06:38;;;;;;;;;;;21.50;99.90;;;;;;5098482;28;20219;-89
2022/06/20 03:09:05;;;;;;;;;;;21.50;99.90;;;;;;5105630;28;19983;-90
2022/06/20 03:11:36;;;;;;;;;;;21.50;99.90;;;;;;5105168;28;19927;-88
2022/06/20 03:14:05;;;;;;;;;;;21.50;99.90;;;;;;5096874;28;19927;-88
2022/06/20 03:16:32;;;;;;;;;;;21.50;99.90;;;;;;5083615;28;19920;-87
2022/06/20 03:19:00;;;;;;;;;;;21.50;99.90;;;;;;5087013;28;19943;-88
2022/06/20 03:21:29;;;;;;;;;;;21.40;99.90;;;;;;5088923;28;19928;-89
2022/06/20 03:23:56;;;;;;;;;;;21.30;99.90;;;;;;5089116;28;19920;-89
2022/06/20 03:26:24;;;;;;;;;;;21.30;99.90;;;;;;5088196;28;19920;-88
2022/06/20 03:28:52;;;;;;;;;;;21.20;99.90;;;;;;5088604;28;19921;-88
2022/06/20 03:31:19;;;;;;;;;;;21.10;99.90;;;;;;5089089;28;19920;-88
2022/06/20 03:33:46;;;;;;;;;;;21.00;99.90;;;;;;5088978;28;20122;-89
2022/06/20 03:36:15;;;;;;;;;;;21.00;99.90;;;;;;5087711;28;19956;-89
2022/06/20 03:38:43;;;;;;;;;;;20.90;99.90;;;;;;5087639;28;19920;-88
2022/06/20 03:41:11;;;;;;;;;;;20.80;99.90;;;;;;5087461;28;19927;-89
2022/06/20 03:43:38;;;;;;;;;;;20.80;99.90;;;;;;5087480;28;19920;-89
2022/06/20 03:46:08;;;;;;;;;;;20.80;99.90;;;;;;5087163;28;19920;-88
2022/06/20 03:48:37;;;;;;;;;;;20.80;99.90;;;;;;5086947;28;19920;-88
2022/06/20 03:51:06;;;;;;;;;;;20.80;99.90;;;;;;5087170;28;19943;-88
2022/06/20 03:53:36;;;;;;;;;;;20.80;99.90;;;;;;5087155;28;19940;-88
2022/06/20 03:56:10;;;;;;;;;;;20.90;99.90;;;;;;5086368;28;19921;-89
2022/06/20 03:58:39;;;;;;;;;;;20.80;99.90;;;;;;5086937;28;19996;-88
2022/06/20 04:01:10;;;;;;;;;;;20.80;99.90;;;;;;5088732;28;20101;-89
2022/06/20 04:03:41;;;;;;;;;;;20.80;99.90;;;;;;5092541;28;19920;-88
2022/06/20 04:06:09;;;;;;;;;;;20.80;99.90;;;;;;5097988;28;19966;-89
2022/06/20 04:11:24;;;;;;;;;;;20.80;99.90;;;;;;5107487;28;20230;-88
2022/06/20 04:13:54;;;;;;;;;;;20.80;99.90;;;;;;5081199;28;19920;-87
2022/06/20 04:16:24;;;;;;;;;;;20.90;99.90;;;;;;5090736;28;20119;-90
2022/06/20 04:18:54;;;;;;;;;;;20.80;99.90;;;;;;5087299;28;20246;-90
2022/06/20 04:21:26;;;;;;;;;;;20.80;99.90;;;;;;5070675;28;19917;-90
2022/06/20 04:23:55;;;;;;;;;;;20.90;99.90;;;;;;5066033;28;19941;-90
2022/06/20 04:26:25;;;;;;;;;;;20.90;99.90;;;;;;5076199;28;20208;-89
2022/06/20 04:28:54;;;;;;;;;;;21.00;99.90;;;;;;5086059;28;19921;-90
2022/06/20 04:31:31;;;;;;;;;;;21.10;99.90;;;;;;5087687;28;19920;-90
2022/06/20 04:34:00;;;;;;;;;;;21.20;99.90;;;;;;5088307;28;19920;-89
2022/06/20 04:36:47;;;;;;;;;;;21.20;99.90;;;;;;5096244;23;19947;-89
2022/06/20 04:39:22;;;;;;;;;;;21.00;99.90;;;;;;5107053;28;19920;-91
2022/06/20 04:42:03;;;;;;;;;;;21.00;99.90;;;;;;5109017;28;19928;-90
2022/06/20 04:44:34;;;;;;;;;;;21.00;99.90;;;;;;5097761;28;19991;-89
2022/06/20 04:47:11;;;;;;;;;;;20.70;99.90;;;;;;5096014;28;19928;-90
2022/06/20 04:49:40;;;;;;;;;;;20.70;99.90;;;;;;5084389;28;19920;-89
2022/06/20 04:52:09;;;;;;;;;;;20.70;99.90;;;;;;5087663;28;19920;-88
2022/06/20 04:54:41;;;;;;;;;;;20.70;99.90;;;;;;5087167;28;19920;-89
2022/06/20 04:57:13;;;;;;;;;;;20.70;99.90;;;;;;5088361;28;19921;-88
2022/06/20 04:59:41;;;;;;;;;;;20.70;99.90;;;;;;5094655;28;19928;-89
2022/06/20 05:02:15;;;;;;;;;;;20.70;99.90;;;;;;5072887;28;20127;-89
2022/06/20 05:04:46;;;;;;;;;;;20.60;99.90;;;;;;5080634;28;19944;-87
2022/06/20 05:07:18;;;;;;;;;;;20.70;99.90;;;;;;5084611;28;19944;-88
2022/06/20 05:09:47;;;;;;;;;;;20.70;99.90;;;;;;5084156;28;20127;-89
2022/06/20 05:12:20;;;;;;;;;;;20.70;99.90;;;;;;5086140;28;19920;-87
2022/06/20 05:14:51;;;;;;;;;;;20.80;99.90;;;;;;5090057;28;19920;-89
2022/06/20 05:17:21;;;;;;;;;;;20.80;99.90;;;;;;5090558;28;19921;-88
2022/06/20 05:19:49;;;;;;;;;;;20.80;99.90;;;;;;5089716;28;19920;-88
2022/06/20 05:22:19;;;;;;;;;;;20.80;99.90;;;;;;5089816;28;19927;-88
2022/06/20 05:24:53;;;;;;;;;;;20.80;99.90;;;;;;5091955;28;19920;-88
2022/06/20 05:27:26;;;;;;;;;;;20.90;99.90;;;;;;5089731;28;19928;-88
2022/06/20 05:30:00;;;;;;;;;;;20.90;99.90;;;;;;5090666;28;19928;-89
2022/06/20 05:32:39;;;;;;;;;;;20.90;99.90;;;;;;5089849;28;19920;-90
2022/06/20 05:35:08;;;;;;;;;;;20.90;99.90;;;;;;5090459;28;19921;-88
2022/06/20 05:37:37;;;;;;;;;;;20.90;99.90;;;;;;5089154;28;19976;-89
2022/06/20 05:40:11;;;;;;;;;;;20.90;99.90;;;;;;5089810;28;20026;-88
2022/06/20 05:42:38;;;;;;;;;;;21.00;99.90;;;;;;5090591;28;19920;-88
2022/06/20 05:45:40;;;;;;;;;;;20.90;99.90;;;;;;5089755;28;19920;-89
2022/06/20 05:48:26;;;;;;;;;;;20.90;99.90;;;;;;5084818;28;19921;-88
2022/06/20 05:50:56;;;;;;;;;;;20.90;99.90;;;;;;5082945;28;19926;-88
2022/06/20 05:53:33;;;;;;;;;;;20.90;99.90;;;;;;5084524;28;19966;-88
2022/06/20 05:56:05;;;;;;;;;;;20.80;99.90;;;;;;5084814;28;19920;-88
2022/06/20 05:58:39;;;;;;;;;;;20.80;99.90;;;;;;5080157;28;19948;-88
2022/06/20 06:01:10;;;;;;;;;;;20.70;99.90;;;;;;5082121;28;19920;-89
2022/06/20 06:09:54;;;;;;;;;;;20.60;99.90;;;;;;5043637;28;19925;-88
2022/06/20 06:12:25;;;;;;;;;;;20.50;99.90;;;;;;5044276;28;19929;-87
2022/06/20 06:14:54;;;;;;;;;;;20.50;99.90;;;;;;5044275;28;20147;-88
2022/06/20 06:17:22;;;;;;;;;;;20.30;99.90;;;;;;5045217;28;19925;-88
2022/06/20 06:19:53;;;;;;;;;;;20.20;99.90;;;;;;5044659;28;19921;-87
2022/06/20 06:22:20;;;;;;;;;;;20.20;99.90;;;;;;5041877;28;19928;-87
2022/06/20 06:24:49;;;;;;;;;;;20.10;99.90;;;;;;5043023;28;20120;-88
2022/06/20 06:27:19;;;;;;;;;;;20.00;99.90;;;;;;5043536;28;19922;-89
2022/06/20 06:29:48;;;;;;;;;;;20.00;99.90;;;;;;5044582;28;19928;-87
2022/06/20 06:32:17;;;;;;;;;;;20.00;99.90;;;;;;5043872;28;19977;-88
2022/06/20 06:34:46;;;;;;;;;;;20.00;99.90;;;;;;5043995;28;19929;-89
2022/06/20 06:37:17;;;;;;;;;;;20.10;99.90;;;;;;5043679;28;19928;-90
2022/06/20 06:39:51;;;;;;;;;;;20.10;99.90;;;;;;5033987;28;19948;-89
2022/06/20 06:42:18;;;;;;;;;;;20.10;99.90;;;;;;5041257;28;19941;-88
2022/06/20 06:44:46;;;;;;;;;;;20.10;99.90;;;;;;5043129;28;19921;-88
2022/06/20 06:47:17;;;;;;;;;;;20.20;99.90;;;;;;5042979;28;19921;-89
2022/06/20 06:49:44;;;;;;;;;;;20.20;99.90;;;;;;5058395;22;20316;-69
2022/06/20 06:52:14;;;;;;;;;;;20.20;99.90;;;;;;5042892;28;19921;-70
2022/06/20 06:54:52;;;;;;;;;;;20.30;99.90;;;;;;5046386;28;19921;-70
2022/06/20 06:57:22;;;;;;;;;;;20.40;99.90;;;;;;5045275;28;19967;-70
2022/06/20 06:59:56;;;;;;;;;;;20.40;99.90;;;;;;5043267;28;19984;-68
2022/06/20 07:02:25;;;;;;;;;;;20.40;99.90;;;;;;5046899;28;20173;-70
2022/06/20 07:04:54;;;;;;;;;;;20.50;99.90;;;;;;5046304;28;19921;-68
2022/06/20 07:07:24;;;;;;;;;;;20.40;99.90;;;;;;5046198;28;19975;-70
2022/06/20 07:09:53;;;;;;;;;;;20.40;99.90;;;;;;5043654;28;19928;-70
2022/06/20 07:12:24;;;;;;;;;;;20.40;99.90;;;;;;5046651;28;20239;-70
2022/06/20 07:14:56;;;;;;;;;;;20.40;99.90;;;;;;5045806;28;19960;-71
2022/06/20 07:17:25;;;;;;;;;;;20.40;99.90;;;;;;5045080;28;19921;-70
2022/06/20 07:19:52;;;;;;;;;;;20.40;99.90;;;;;;5045933;28;19927;-71
2022/06/20 07:22:20;;;;;;;;;;;20.50;99.90;;;;;;5046282;28;20256;-71
2022/06/20 07:24:47;;;;;;;;;;;20.50;99.90;;;;;;5043679;28;19921;-70
2022/06/20 07:27:18;;;;;;;;;;;20.50;99.90;;;;;;5045401;28;19921;-71
2022/06/20 07:29:47;;;;;;;;;;;20.60;99.90;;;;;;5046277;28;19935;-70
2022/06/20 07:32:16;;;;;;;;;;;20.50;99.90;;;;;;5044990;28;20187;-70
2022/06/20 07:34:45;;;;;;;;;;;20.50;99.90;;;;;;5043116;28;19948;-70
2022/06/20 07:37:14;;;;;;;;;;;20.60;99.90;;;;;;5045218;28;19957;-71
2022/06/20 07:39:44;;;;;;;;;;;20.60;99.90;;;;;;5045625;28;20116;-71
2022/06/20 07:42:15;;;;;;;;;;;20.70;99.90;;;;;;5045428;28;19949;-71
2022/06/20 07:44:46;;;;;;;;;;;20.80;99.90;;;;;;5045877;28;19921;-71
2022/06/20 07:47:15;;;;;;;;;;;20.90;99.90;;;;;;5044738;28;19928;-70
2022/06/20 07:49:44;;;;;;;;;;;20.90;99.90;;;;;;5043269;28;19921;-70
2022/06/20 07:52:12;;;;;;;;;;;20.90;99.90;;;;;;5045742;28;19944;-71
2022/06/20 07:54:40;;;;;;;;;;;20.90;99.90;;;;;;5045769;28;19921;-71
2022/06/20 07:57:10;;;;;;;;;;;21.00;99.90;;;;;;5043680;28;20279;-69
2022/06/20 07:59:41;;;;;;;;;;;21.00;99.90;;;;;;5075480;22;19921;-68
2022/06/20 08:02:15;;;;;;;;;;;21.00;99.90;;;;;;5061108;28;19948;-68
2022/06/20 08:04:42;;;;;;;;;;;21.00;99.90;;;;;;5077390;28;19999;-69
2022/06/20 08:07:13;;;;;;;;;;;21.10;99.90;;;;;;5063893;28;20250;-69
2022/06/20 08:09:42;;;;;;;;;;;21.10;99.90;;;;;;5065220;28;19966;-69
2022/06/20 08:12:10;;;;;;;;;;;21.10;99.90;;;;;;5065570;28;19956;-69
2022/06/20 08:14:43;;;;;;;;;;;21.30;99.90;;;;;;5065180;28;19984;-69
2022/06/20 08:17:11;;;;;;;;;;;21.40;99.90;;;;;;5064379;28;20123;-69
2022/06/20 08:19:40;;;;;;;;;;;21.40;99.90;;;;;;5065168;28;19927;-69
2022/06/20 08:22:09;;;;;;;;;;;21.50;99.90;;;;;;5065144;28;19960;-69
2022/06/20 08:24:38;;;;;;;;;;;21.60;99.90;;;;;;5065186;28;19920;-69
2022/06/20 08:27:06;;;;;;;;;;;21.70;99.90;;;;;;5064308;28;20180;-69
2022/06/20 08:29:35;;;;;;;;;;;21.80;99.90;;;;;;5064770;28;19921;-69
2022/06/20 08:32:06;;;;;;;;;;;21.90;99.90;;;;;;5065197;28;20243;-69
2022/06/20 08:34:37;;;;;;;;;;;22.00;99.90;;;;;;5065106;28;20176;-69
2022/06/20 08:37:08;;;;;;;;;;;22.10;99.90;;;;;;5064153;28;19921;-69
2022/06/20 08:39:38;;;;;;;;;;;22.30;99.90;;;;;;5055987;28;19921;-69
2022/06/20 08:42:26;;;;;;;;;;;22.50;99.90;;;;;;5058604;28;19927;-69
2022/06/20 08:45:08;;;;;;;;;;;22.70;99.90;;;;;;5059625;28;20236;-68
2022/06/20 08:48:08;;;;;;;;;;;22.80;99.90;;;;;;5054314;28;19921;-66
2022/06/20 08:51:01;;;;;;;;;;;22.90;99.90;;;;;;5003217;28;19922;-67
2022/06/20 08:53:41;;;;;;;;;;;23.10;99.90;;;;;;5011489;28;20280;-67
2022/06/20 08:56:21;;;;;;;;;;;23.20;99.90;;;;;;5037320;28;20255;-67
2022/06/20 08:58:52;;;;;;;;;;;23.30;99.90;;;;;;5066912;28;19927;-67
2022/06/20 09:01:23;;;;;;;;;;;23.40;99.90;;;;;;5064763;28;20250;-67
2022/06/20 09:04:05;;;;;;;;;;;23.50;99.90;;;;;;5071752;28;19966;-67
2022/06/20 09:06:45;;;;;;;;;;;23.60;99.90;;;;;;5052200;28;19920;-67
2022/06/20 09:09:31;;;;;;;;;;;23.70;99.90;;;;;;5064140;28;19928;-67
2022/06/20 09:12:06;;;;;;;;;;;23.80;99.90;;;;;;5064551;28;20030;-67
2022/06/20 09:14:48;;;;;;;;;;;24.00;99.90;;;;;;5064263;28;19921;-67
2022/06/20 09:17:18;;;;;;;;;;;24.10;99.90;;;;;;5058381;28;19972;-68
2022/06/20 09:19:50;;;;;;;;;;;24.20;99.90;;;;;;5056511;28;19963;-68
2022/06/20 09:22:23;;;;;;;;;;;24.20;99.90;;;;;;5063383;28;20007;-68
2022/06/20 09:25:02;;;;;;;;;;;24.40;99.90;;;;;;5062424;28;20259;-67
2022/06/20 09:27:33;;;;;;;;;;;24.60;99.90;;;;;;5062201;28;20121;-68
2022/06/20 09:30:04;;;;;;;;;;;24.70;99.90;;;;;;5059046;28;19927;-67
2022/06/20 09:32:43;;;;;;;;;;;24.80;99.90;;;;;;5063452;28;19920;-67
2022/06/20 09:35:26;;;;;;;;;;;24.90;99.90;;;;;;5062217;28;19956;-67
2022/06/20 09:38:08;;;;;;;;;;;24.90;99.90;;;;;;5063410;28;19921;-67
2022/06/20 09:40:38;;;;;;;;;;;25.00;99.90;;;;;;5056544;28;20156;-67
2022/06/20 09:43:13;;;;;;;;;;;25.00;99.90;;;;;;5065283;28;19952;-68
2022/06/20 09:45:45;;;;;;;;;;;25.00;99.90;;;;;;5068721;28;19964;-68
2022/06/20 09:48:15;;;;;;;;;;;25.10;99.90;;;;;;5063523;28;19980;-68
2022/06/20 09:50:45;;;;;;;;;;;25.20;99.90;;;;;;5063578;28;20227;-67
2022/06/20 09:53:19;;;;;;;;;;;25.20;99.90;;;;;;5062789;28;19959;-67
2022/06/20 09:55:54;;;;;;;;;;;25.30;99.90;;;;;;5060536;28;19955;-67
2022/06/20 09:58:27;;;;;;;;;;;25.40;99.90;;;;;;5062348;28;19956;-68
2022/06/20 10:00:56;;;;;;;;;;;25.50;99.90;;;;;;5063231;28;19928;-68
2022/06/20 10:03:30;;;;;;;;;;;25.70;99.90;;;;;;5055283;28;19984;-67
2022/06/20 10:05:59;;;;;;;;;;;25.80;99.90;;;;;;5043065;28;20163;-67
2022/06/20 10:08:30;;;;;;;;;;;26.00;99.90;;;;;;5049579;28;20175;-67
2022/06/20 10:11:02;;;;;;;;;;;26.10;99.90;;;;;;5062920;28;20215;-67
2022/06/20 10:13:31;;;;;;;;;;;26.30;99.90;;;;;;5062987;28;20232;-68
2022/06/20 10:16:05;;;;;;;;;;;26.50;99.90;;;;;;5058201;28;19948;-67
2022/06/20 10:18:39;;;;;;;;;;;26.50;99.90;;;;;;5051418;28;19936;-67
2022/06/20 10:21:07;;;;;;;;;;;26.40;99.90;;;;;;5048799;28;19964;-67
2022/06/20 10:23:45;;;;;;;;;;;26.40;99.90;;;;;;5046663;28;20159;-67
2022/06/20 10:26:19;;;;;;;;;;;26.30;99.90;;;;;;5058364;28;20191;-67
2022/06/20 10:28:47;;;;;;;;;;;26.20;99.90;;;;;;5065747;28;19928;-67
2022/06/20 10:31:21;;;;;;;;;;;26.20;99.90;;;;;;5067010;28;20208;-68
2022/06/20 10:33:53;;;;;;;;;;;26.30;99.90;;;;;;5065099;28;19959;-67
2022/06/20 10:36:21;;;;;;;;;;;26.40;99.90;;;;;;5066166;28;19963;-68
2022/06/20 10:38:58;;;;;;;;;;;26.40;99.90;;;;;;5066558;28;19974;-67
2022/06/20 10:41:28;;;;;;;;;;;26.40;99.90;;;;;;5075241;28;20235;-67
2022/06/20 10:44:01;;;;;;;;;;;26.40;99.90;;;;;;5066651;28;19956;-67
2022/06/20 10:46:35;;;;;;;;;;;26.40;99.90;;;;;;5047058;28;19956;-67
2022/06/20 10:49:12;;;;;;;;;;;26.40;99.90;;;;;;5066362;28;19929;-68
2022/06/20 10:51:42;;;;;;;;;;;26.20;99.90;;;;;;5067010;28;19921;-68
2022/06/20 10:54:16;;;;;;;;;;;26.10;99.90;;;;;;5066247;28;19921;-67
2022/06/20 10:56:50;;;;;;;;;;;26.10;99.90;;;;;;5063075;28;20239;-67
2022/06/20 10:59:26;;;;;;;;;;;26.30;99.90;;;;;;5064486;28;19956;-67
2022/06/20 11:01:54;;;;;;;;;;;26.40;99.90;;;;;;5064723;28;20247;-67
2022/06/20 11:04:31;;;;;;;;;;;26.60;99.90;;;;;;5066845;28;19952;-67
2022/06/20 11:07:14;;;;;;;;;;;26.80;99.90;;;;;;5058797;28;19928;-67
2022/06/20 11:09:46;;;;;;;;;;;26.90;99.90;;;;;;5051885;28;19963;-68
2022/06/20 11:12:19;;;;;;;;;;;26.90;99.90;;;;;;5048017;28;19988;-67
2022/06/20 11:14:53;;;;;;;;;;;27.00;99.90;;;;;;5045588;28;19952;-68
2022/06/20 11:17:24;;;;;;;;;;;27.10;99.90;;;;;;5065342;28;19927;-67
2022/06/20 11:19:57;;;;;;;;;;;27.10;99.90;;;;;;5060070;28;19956;-68
2022/06/20 11:22:43;;;;;;;;;;;27.00;99.90;;;;;;5063807;28;20196;-67
2022/06/20 11:25:23;;;;;;;;;;;27.00;99.90;;;;;;5072485;28;19952;-66
2022/06/20 11:27:58;;;;;;;;;;;26.80;99.90;;;;;;5081557;28;19960;-67
2022/06/20 11:30:28;;;;;;;;;;;26.70;99.90;;;;;;5049573;28;19967;-68
2022/06/20 11:33:09;;;;;;;;;;;26.60;99.90;;;;;;5065737;28;19956;-67
2022/06/20 11:35:42;;;;;;;;;;;26.50;99.90;;;;;;5062587;28;20243;-67
2022/06/20 11:38:25;;;;;;;;;;;26.50;99.90;;;;;;5065436;28;20121;-68
2022/06/20 11:40:58;;;;;;;;;;;26.40;99.90;;;;;;5066226;28;19952;-68
2022/06/20 11:43:40;;;;;;;;;;;26.40;99.90;;;;;;5069437;28;19924;-67
2022/06/20 11:46:15;;;;;;;;;;;26.50;99.90;;;;;;5074344;28;19979;-67
2022/06/20 11:48:49;;;;;;;;;;;26.60;99.90;;;;;;5062980;28;19984;-67
2022/06/20 11:51:21;;;;;;;;;;;26.60;99.90;;;;;;5060523;28;19921;-67
2022/06/20 11:53:53;;;;;;;;;;;26.50;99.90;;;;;;5072587;28;20190;-67
2022/06/20 11:56:24;;;;;;;;;;;26.50;99.90;;;;;;5065084;28;19961;-67
2022/06/20 11:59:04;;;;;;;;;;;26.50;99.90;;;;;;5065663;28;19956;-67
2022/06/20 12:01:33;;;;;;;;;;;26.40;99.90;;;;;;5068277;28;19988;-67
2022/06/20 12:04:02;;;;;;;;;;;26.20;99.90;;;;;;5077323;28;19920;-67
2022/06/20 12:06:31;;;;;;;;;;;25.90;99.90;;;;;;5077062;28;19936;-67
2022/06/20 12:09:00;;;;;;;;;;;25.80;99.90;;;;;;5065581;28;19967;-67
2022/06/20 12:11:39;;;;;;;;;;;25.60;99.90;;;;;;5053492;28;20182;-67
2022/06/20 12:14:11;;;;;;;;;;;25.50;99.90;;;;;;5068465;28;20120;-66
2022/06/20 12:16:43;;;;;;;;;;;25.20;99.90;;;;;;5064266;28;20176;-67
2022/06/20 12:25:02;;;;;;;;;;;24.80;99.90;;;;;;5078850;28;20147;-67
2022/06/20 12:27:31;;;;;;;;;;;24.70;99.90;;;;;;5076745;28;20179;-67
2022/06/20 12:29:58;;;;;;;;;;;24.70;99.90;;;;;;5057979;28;19930;-67
2022/06/20 12:32:27;;;;;;;;;;;24.60;99.90;;;;;;5056841;28;19935;-67
2022/06/20 12:34:57;;;;;;;;;;;24.50;99.90;;;;;;5062035;28;19922;-67
2022/06/20 12:37:27;;;;;;;;;;;24.40;99.90;;;;;;5073713;28;19955;-67
2022/06/20 12:39:56;;;;;;;;;;;24.40;99.90;;;;;;5079604;28;20177;-66
2022/06/20 12:42:25;;;;;;;;;;;24.40;99.90;;;;;;5064485;28;20068;-67
2022/06/20 12:44:57;;;;;;;;;;;24.40;99.90;;;;;;5060132;28;19953;-67
2022/06/20 12:47:48;;;;;;;;;;;24.40;99.90;;;;;;5055338;28;20237;-66
2022/06/20 12:50:22;;;;;;;;;;;24.30;99.90;;;;;;5074370;28;19929;-67
2022/06/20 12:52:56;;;;;;;;;;;24.20;99.90;;;;;;5084900;28;19928;-66
2022/06/20 12:55:29;;;;;;;;;;;24.20;99.90;;;;;;5083820;28;19928;-67
2022/06/20 12:58:04;;;;;;;;;;;24.30;99.90;;;;;;5084384;28;19995;-67
2022/06/20 13:00:36;;;;;;;;;;;24.60;99.90;;;;;;5067983;28;19921;-68
2022/06/20 13:03:29;;;;;;;;;;;24.80;99.90;;;;;;5084323;28;19920;-66
2022/06/20 13:06:01;;;;;;;;;;;24.90;99.90;;;;;;5083961;28;19951;-67
2022/06/20 13:08:45;;;;;;;;;;;24.80;99.90;;;;;;5084174;28;19920;-67
2022/06/20 13:11:18;;;;;;;;;;;24.60;99.90;;;;;;5073432;28;19920;-67
2022/06/20 13:13:58;;;;;;;;;;;24.90;99.90;;;;;;5058830;28;19949;-67
2022/06/20 13:16:30;;;;;;;;;;;25.10;99.90;;;;;;5043823;28;19925;-67
2022/06/20 13:19:04;;;;;;;;;;;24.80;99.90;;;;;;5043988;28;20258;-67
2022/06/20 13:21:35;;;;;;;;;;;24.80;99.90;;;;;;5044470;28;19929;-67
2022/06/20 13:24:23;;;;;;;;;;;24.80;99.90;;;;;;5055735;28;19957;-67
2022/06/20 13:26:56;;;;;;;;;;;24.50;99.90;;;;;;5066816;28;19935;-66
2022/06/20 13:29:29;;;;;;;;;;;24.30;99.90;;;;;;5063948;28;19920;-67
2022/06/20 13:32:00;;;;;;;;;;;24.00;99.90;;;;;;5063460;28;19929;-67
2022/06/20 13:34:34;;;;;;;;;;;23.90;99.90;;;;;;5063683;28;19935;-66
2022/06/20 13:37:04;;;;;;;;;;;23.80;99.90;;;;;;5063091;28;20023;-67
2022/06/20 13:39:37;;;;;;;;;;;23.70;99.90;;;;;;5051322;28;20297;-67
2022/06/20 13:42:14;;;;;;;;;;;23.80;99.90;;;;;;5043628;28;19928;-67
2022/06/20 13:44:47;;;;;;;;;;;23.90;99.90;;;;;;5071869;28;20165;-67
2022/06/20 13:47:20;;;;;;;;;;;24.00;99.90;;;;;;5074342;28;19921;-67
2022/06/20 13:49:51;;;;;;;;;;;23.90;99.90;;;;;;5079629;28;19925;-67
2022/06/20 13:52:23;;;;;;;;;;;23.70;99.90;;;;;;5046358;28;19959;-66
2022/06/20 13:54:54;;;;;;;;;;;23.50;99.90;;;;;;5047626;28;20160;-67
2022/06/20 13:57:23;;;;;;;;;;;23.20;99.90;;;;;;5042855;28;19939;-67
2022/06/20 13:59:57;;;;;;;;;;;23.10;99.90;;;;;;5043493;28;20097;-67
2022/06/20 14:02:39;;;;;;;;;;;22.90;99.90;;;;;;5057155;28;20216;-68
2022/06/20 14:05:16;;;;;;;;;;;22.70;99.90;;;;;;5042541;28;19921;-67
2022/06/20 14:07:44;;;;;;;;;;;22.50;99.90;;;;;;5043128;28;20263;-67
2022/06/20 14:10:20;;;;;;;;;;;22.40;99.90;;;;;;5044410;28;20192;-67
2022/06/20 14:12:49;;;;;;;;;;;22.40;99.90;;;;;;5043768;28;19971;-67
2022/06/20 14:15:21;;;;;;;;;;;22.40;99.90;;;;;;5047375;28;19928;-66
2022/06/20 14:17:51;;;;;;;;;;;22.50;99.90;;;;;;5043183;28;19921;-66
2022/06/20 14:20:21;;;;;;;;;;;22.50;99.90;;;;;;5059070;28;19921;-67
2022/06/20 14:22:49;;;;;;;;;;;22.40;99.90;;;;;;5063139;28;19952;-66
2022/06/20 14:25:24;;;;;;;;;;;22.30;99.90;;;;;;5043191;28;19953;-66
2022/06/20 14:27:51;;;;;;;;;;;22.20;99.90;;;;;;5044056;28;19957;-67
2022/06/20 14:30:22;;;;;;;;;;;22.10;99.90;;;;;;5047612;28;19980;-66
2022/06/20 14:32:50;;;;;;;;;;;22.00;99.90;;;;;;5063176;28;19928;-66
2022/06/20 14:35:25;;;;;;;;;;;22.00;99.90;;;;;;5058804;28;19956;-66
2022/06/20 14:37:56;;;;;;;;;;;21.90;99.90;;;;;;5040534;28;20180;-65
2022/06/20 14:40:25;;;;;;;;;;;21.90;99.90;;;;;;5043160;28;20232;-66
2022/06/20 14:42:56;;;;;;;;;;;22.00;99.90;;;;;;5067319;28;19959;-66
2022/06/20 14:45:26;;;;;;;;;;;22.00;99.90;;;;;;5066255;28;20120;-67
2022/06/20 14:47:58;;;;;;;;;;;22.10;99.90;;;;;;5057013;28;19952;-67
2022/06/20 14:50:29;;;;;;;;;;;22.20;99.90;;;;;;5052033;28;19952;-67
2022/06/20 14:52:58;;;;;;;;;;;22.10;99.90;;;;;;5062437;28;19949;-67
2022/06/20 14:55:29;;;;;;;;;;;22.00;99.90;;;;;;5054320;28;19921;-68